sensor_id;sensor_type;location;lat;lon;timestamp;temperature;humidity
74384;DHT22;62824;52.994;-3.936;2023-04-06T00:01:41;10.00;99.90
74384;DHT22;62824;52.994;-3.936;2023-04-06T00:04:07;10.00;99.90
74384;DHT22;62824;52.994;-3.936;2023-04-06T00:06:33;9.90;99.90
74384;DHT22;62824;52.994;-3.936;2023-04-06T00:08:59;10.00;99.90
74384;DHT22;62824;52.994;-3.936;2023-04-06T00:11:26;9.90;99.90
74384;DHT22;62824;52.994;-3.936;2023-04-06T00:13:52;9.90;99.90
74384;DHT22;62824;52.994;-3.936;2023-04-06T00:16:18;9.90;99.90
74384;DHT22;62824;52.994;-3.936;2023-04-06T00:18:44;9.90;99.90
74384;DHT22;62824;52.994;-3.936;2023-04-06T00:21:13;9.90;99.90
74384;DHT22;62824;52.994;-3.936;2023-04-06T00:23:40;9.90;99.90
74384;DHT22;62824;52.994;-3.936;2023-04-06T00:26:06;9.90;99.90
74384;DHT22;62824;52.994;-3.936;2023-04-06T00:28:32;9.80;99.90
74384;DHT22;62824;52.994;-3.936;2023-04-06T00:30:57;9.80;99.90
74384;DHT22;62824;52.994;-3.936;2023-04-06T00:33:23;9.70;99.90
74384;DHT22;62824;52.994;-3.936;2023-04-06T00:35:49;9.70;99.90
74384;DHT22;62824;52.994;-3.936;2023-04-06T00:38:16;9.70;99.90
74384;DHT22;62824;52.994;-3.936;2023-04-06T00:40:43;9.70;99.90
74384;DHT22;62824;52.994;-3.936;2023-04-06T00:43:11;9.70;99.90
74384;DHT22;62824;52.994;-3.936;2023-04-06T00:45:40;9.70;99.90
74384;DHT22;62824;52.994;-3.936;2023-04-06T00:48:07;9.70;99.90
74384;DHT22;62824;52.994;-3.936;2023-04-06T00:54:07;9.80;99.90
74384;DHT22;62824;52.994;-3.936;2023-04-06T00:56:33;9.70;99.90
74384;DHT22;62824;52.994;-3.936;2023-04-06T00:58:59;9.70;99.90
74384;DHT22;62824;52.994;-3.936;2023-04-06T01:01:25;9.70;99.90
74384;DHT22;62824;52.994;-3.936;2023-04-06T01:03:51;9.70;99.90
74384;DHT22;62824;52.994;-3.936;2023-04-06T01:06:17;9.70;99.90
74384;DHT22;62824;52.994;-3.936;2023-04-06T01:08:43;9.60;99.90
74384;DHT22;62824;52.994;-3.936;2023-04-06T01:11:08;9.60;99.90
74384;DHT22;62824;52.994;-3.936;2023-04-06T01:13:34;9.60;99.90
74384;DHT22;62824;52.994;-3.936;2023-04-06T01:16:00;9.70;99.90
74384;DHT22;62824;52.994;-3.936;2023-04-06T01:18:27;9.60;99.90
74384;DHT22;62824;52.994;-3.936;2023-04-06T01:20:53;9.60;99.90
74384;DHT22;62824;52.994;-3.936;2023-04-06T01:23:19;9.60;99.90
74384;DHT22;62824;52.994;-3.936;2023-04-06T01:25:45;9.50;99.90
74384;DHT22;62824;52.994;-3.936;2023-04-06T01:28:10;9.50;99.90
74384;DHT22;62824;52.994;-3.936;2023-04-06T01:30:36;9.40;99.90
74384;DHT22;62824;52.994;-3.936;2023-04-06T01:33:02;9.50;99.90
74384;DHT22;62824;52.994;-3.936;2023-04-06T01:35:28;9.50;99.90
74384;DHT22;62824;52.994;-3.936;2023-04-06T01:37:54;9.50;99.90
74384;DHT22;62824;52.994;-3.936;2023-04-06T01:40:20;9.50;99.90
74384;DHT22;62824;52.994;-3.936;2023-04-06T01:42:46;9.50;99.90
74384;DHT22;62824;52.994;-3.936;2023-04-06T01:45:12;9.50;99.90
74384;DHT22;62824;52.994;-3.936;2023-04-06T01:47:38;9.50;99.90
74384;DHT22;62824;52.994;-3.936;2023-04-06T01:50:04;9.60;99.90
74384;DHT22;62824;52.994;-3.936;2023-04-06T01:52:32;9.60;99.90
74384;DHT22;62824;52.994;-3.936;2023-04-06T01:54:58;9.60;99.90
74384;DHT22;62824;52.994;-3.936;2023-04-06T01:57:24;9.60;99.90
74384;DHT22;62824;52.994;-3.936;2023-04-06T01:59:51;9.70;99.90
74384;DHT22;62824;52.994;-3.936;2023-04-06T02:02:30;9.70;99.90
74384;DHT22;62824;52.994;-3.936;2023-04-06T02:04:56;9.60;99.90
74384;DHT22;62824;52.994;-3.936;2023-04-06T02:07:22;9.60;99.90
74384;DHT22;62824;52.994;-3.936;2023-04-06T02:09:47;9.60;99.90
74384;DHT22;62824;52.994;-3.936;2023-04-06T02:12:13;9.70;99.90
74384;DHT22;62824;52.994;-3.936;2023-04-06T02:14:39;9.70;99.90
74384;DHT22;62824;52.994;-3.936;2023-04-06T02:17:05;9.70;99.90
74384;DHT22;62824;52.994;-3.936;2023-04-06T02:19:31;9.60;99.90
74384;DHT22;62824;52.994;-3.936;2023-04-06T02:21:56;9.60;99.90
74384;DHT22;62824;52.994;-3.936;2023-04-06T02:24:22;9.60;99.90
74384;DHT22;62824;52.994;-3.936;2023-04-06T02:26:48;9.50;99.90
74384;DHT22;62824;52.994;-3.936;2023-04-06T02:29:14;9.60;99.90
74384;DHT22;62824;52.994;-3.936;2023-04-06T02:31:39;9.60;99.90
74384;DHT22;62824;52.994;-3.936;2023-04-06T02:34:05;9.50;99.90
74384;DHT22;62824;52.994;-3.936;2023-04-06T02:36:32;9.60;99.90
74384;DHT22;62824;52.994;-3.936;2023-04-06T02:38:58;9.60;99.90
74384;DHT22;62824;52.994;-3.936;2023-04-06T02:41:24;9.60;99.90
74384;DHT22;62824;52.994;-3.936;2023-04-06T02:43:49;9.60;99.90
74384;DHT22;62824;52.994;-3.936;2023-04-06T02:46:15;9.60;99.90
74384;DHT22;62824;52.994;-3.936;2023-04-06T02:48:41;9.60;99.90
74384;DHT22;62824;52.994;-3.936;2023-04-06T02:54:28;9.60;99.90
74384;DHT22;62824;52.994;-3.936;2023-04-06T02:56:54;9.60;99.90
74384;DHT22;62824;52.994;-3.936;2023-04-06T02:59:20;9.60;99.90
74384;DHT22;62824;52.994;-3.936;2023-04-06T03:01:46;9.50;99.90
74384;DHT22;62824;52.994;-3.936;2023-04-06T03:04:12;9.50;99.90
74384;DHT22;62824;52.994;-3.936;2023-04-06T03:06:37;9.50;99.90
74384;DHT22;62824;52.994;-3.936;2023-04-06T03:09:03;9.50;99.90
74384;DHT22;62824;52.994;-3.936;2023-04-06T03:11:29;9.50;99.90
74384;DHT22;62824;52.994;-3.936;2023-04-06T03:17:30;9.50;99.90
74384;DHT22;62824;52.994;-3.936;2023-04-06T03:19:55;9.40;99.90
74384;DHT22;62824;52.994;-3.936;2023-04-06T03:22:21;9.40;99.90
74384;DHT22;62824;52.994;-3.936;2023-04-06T03:24:47;9.40;99.90
74384;DHT22;62824;52.994;-3.936;2023-04-06T03:27:12;9.40;99.90
74384;DHT22;62824;52.994;-3.936;2023-04-06T03:29:38;9.40;99.90
74384;DHT22;62824;52.994;-3.936;2023-04-06T03:32:04;9.40;99.90
74384;DHT22;62824;52.994;-3.936;2023-04-06T03:34:30;9.30;99.90
74384;DHT22;62824;52.994;-3.936;2023-04-06T03:36:56;9.30;99.90
74384;DHT22;62824;52.994;-3.936;2023-04-06T03:39:22;9.30;99.90
74384;DHT22;62824;52.994;-3.936;2023-04-06T03:41:47;9.30;99.90
74384;DHT22;62824;52.994;-3.936;2023-04-06T03:44:13;9.30;99.90
74384;DHT22;62824;52.994;-3.936;2023-04-06T03:46:39;9.30;99.90
74384;DHT22;62824;52.994;-3.936;2023-04-06T03:49:05;9.30;99.90
74384;DHT22;62824;52.994;-3.936;2023-04-06T03:51:31;9.20;99.90
74384;DHT22;62824;52.994;-3.936;2023-04-06T03:53:56;9.20;99.90
74384;DHT22;62824;52.994;-3.936;2023-04-06T03:59:44;9.00;99.90
74384;DHT22;62824;52.994;-3.936;2023-04-06T04:02:10;9.00;99.90
74384;DHT22;62824;52.994;-3.936;2023-04-06T04:04:36;9.00;99.90
74384;DHT22;62824;52.994;-3.936;2023-04-06T04:07:01;9.00;99.90
74384;DHT22;62824;52.994;-3.936;2023-04-06T04:09:27;9.00;99.90
74384;DHT22;62824;52.994;-3.936;2023-04-06T04:11:53;9.00;99.90
74384;DHT22;62824;52.994;-3.936;2023-04-06T04:14:19;8.90;99.90
74384;DHT22;62824;52.994;-3.936;2023-04-06T04:16:45;8.80;99.90
74384;DHT22;62824;52.994;-3.936;2023-04-06T04:19:11;8.80;99.90
74384;DHT22;62824;52.994;-3.936;2023-04-06T04:21:43;8.80;99.90
74384;DHT22;62824;52.994;-3.936;2023-04-06T04:24:10;8.80;99.90
74384;DHT22;62824;52.994;-3.936;2023-04-06T04:26:36;8.80;99.90
74384;DHT22;62824;52.994;-3.936;2023-04-06T04:29:02;8.70;99.90
74384;DHT22;62824;52.994;-3.936;2023-04-06T04:31:28;8.70;99.90
74384;DHT22;62824;52.994;-3.936;2023-04-06T04:33:54;8.60;99.90
74384;DHT22;62824;52.994;-3.936;2023-04-06T04:36:20;8.60;99.90
74384;DHT22;62824;52.994;-3.936;2023-04-06T04:38:46;8.60;99.90
74384;DHT22;62824;52.994;-3.936;2023-04-06T04:41:11;8.60;99.90
74384;DHT22;62824;52.994;-3.936;2023-04-06T04:43:37;8.70;99.90
74384;DHT22;62824;52.994;-3.936;2023-04-06T04:46:04;8.70;99.90
74384;DHT22;62824;52.994;-3.936;2023-04-06T04:48:30;8.70;99.90
74384;DHT22;62824;52.994;-3.936;2023-04-06T04:50:56;8.70;99.90
74384;DHT22;62824;52.994;-3.936;2023-04-06T04:53:31;8.70;99.90
74384;DHT22;62824;52.994;-3.936;2023-04-06T04:55:56;8.60;99.90
74384;DHT22;62824;52.994;-3.936;2023-04-06T04:58:22;8.50;99.90
74384;DHT22;62824;52.994;-3.936;2023-04-06T05:00:48;8.50;99.90
74384;DHT22;62824;52.994;-3.936;2023-04-06T05:03:25;8.60;99.90
74384;DHT22;62824;52.994;-3.936;2023-04-06T05:05:51;8.60;99.90
74384;DHT22;62824;52.994;-3.936;2023-04-06T05:08:17;8.70;99.90
74384;DHT22;62824;52.994;-3.936;2023-04-06T05:10:43;8.60;99.90
74384;DHT22;62824;52.994;-3.936;2023-04-06T05:13:14;8.60;99.90
74384;DHT22;62824;52.994;-3.936;2023-04-06T05:15:40;8.50;99.90
74384;DHT22;62824;52.994;-3.936;2023-04-06T05:18:07;8.50;99.90
74384;DHT22;62824;52.994;-3.936;2023-04-06T05:20:34;8.50;99.90
74384;DHT22;62824;52.994;-3.936;2023-04-06T05:23:00;8.50;99.90
74384;DHT22;62824;52.994;-3.936;2023-04-06T05:25:26;8.40;99.90
74384;DHT22;62824;52.994;-3.936;2023-04-06T05:27:52;8.40;99.90
74384;DHT22;62824;52.994;-3.936;2023-04-06T05:30:18;8.40;99.90
74384;DHT22;62824;52.994;-3.936;2023-04-06T05:32:44;8.40;99.90
74384;DHT22;62824;52.994;-3.936;2023-04-06T05:35:10;8.50;99.90
74384;DHT22;62824;52.994;-3.936;2023-04-06T05:37:37;8.40;99.90
74384;DHT22;62824;52.994;-3.936;2023-04-06T05:40:03;8.40;99.90
74384;DHT22;62824;52.994;-3.936;2023-04-06T05:42:39;8.40;99.90
74384;DHT22;62824;52.994;-3.936;2023-04-06T05:45:07;8.40;99.90
74384;DHT22;62824;52.994;-3.936;2023-04-06T05:47:32;8.50;99.90
74384;DHT22;62824;52.994;-3.936;2023-04-06T05:49:59;8.40;99.90
74384;DHT22;62824;52.994;-3.936;2023-04-06T05:52:25;8.40;99.90
74384;DHT22;62824;52.994;-3.936;2023-04-06T05:54:51;8.40;99.90
74384;DHT22;62824;52.994;-3.936;2023-04-06T05:57:17;8.40;99.90
74384;DHT22;62824;52.994;-3.936;2023-04-06T05:59:43;8.50;99.90
74384;DHT22;62824;52.994;-3.936;2023-04-06T06:02:08;8.50;99.90
74384;DHT22;62824;52.994;-3.936;2023-04-06T06:04:34;8.60;99.90
74384;DHT22;62824;52.994;-3.936;2023-04-06T06:07:00;8.60;99.90
74384;DHT22;62824;52.994;-3.936;2023-04-06T06:09:26;8.50;99.90
74384;DHT22;62824;52.994;-3.936;2023-04-06T06:11:52;8.50;99.90
74384;DHT22;62824;52.994;-3.936;2023-04-06T06:14:18;8.60;99.90
74384;DHT22;62824;52.994;-3.936;2023-04-06T06:16:43;8.50;99.90
74384;DHT22;62824;52.994;-3.936;2023-04-06T06:19:09;8.50;99.90
74384;DHT22;62824;52.994;-3.936;2023-04-06T06:21:35;8.50;99.90
74384;DHT22;62824;52.994;-3.936;2023-04-06T06:24:01;8.50;99.90
74384;DHT22;62824;52.994;-3.936;2023-04-06T06:29:55;8.50;99.90
74384;DHT22;62824;52.994;-3.936;2023-04-06T06:32:21;8.50;99.90
74384;DHT22;62824;52.994;-3.936;2023-04-06T06:34:46;8.40;99.90
74384;DHT22;62824;52.994;-3.936;2023-04-06T06:37:13;8.50;99.90
74384;DHT22;62824;52.994;-3.936;2023-04-06T06:39:39;8.50;99.90
74384;DHT22;62824;52.994;-3.936;2023-04-06T06:42:05;8.60;99.90
74384;DHT22;62824;52.994;-3.936;2023-04-06T06:44:31;8.60;99.90
74384;DHT22;62824;52.994;-3.936;2023-04-06T06:46:57;8.70;99.90
74384;DHT22;62824;52.994;-3.936;2023-04-06T06:49:23;8.70;99.90
74384;DHT22;62824;52.994;-3.936;2023-04-06T06:51:49;8.60;99.90
74384;DHT22;62824;52.994;-3.936;2023-04-06T06:54:14;8.50;99.90
74384;DHT22;62824;52.994;-3.936;2023-04-06T06:56:40;8.50;99.90
74384;DHT22;62824;52.994;-3.936;2023-04-06T06:59:06;8.60;99.90
74384;DHT22;62824;52.994;-3.936;2023-04-06T07:01:33;8.60;99.90
74384;DHT22;62824;52.994;-3.936;2023-04-06T07:04:01;8.50;99.90
74384;DHT22;62824;52.994;-3.936;2023-04-06T07:06:27;8.50;99.90
74384;DHT22;62824;52.994;-3.936;2023-04-06T07:08:53;8.50;99.90
74384;DHT22;62824;52.994;-3.936;2023-04-06T07:14:54;8.50;99.90
74384;DHT22;62824;52.994;-3.936;2023-04-06T07:17:20;8.60;99.90
74384;DHT22;62824;52.994;-3.936;2023-04-06T07:19:46;8.70;99.90
74384;DHT22;62824;52.994;-3.936;2023-04-06T07:22:12;8.80;99.90
74384;DHT22;62824;52.994;-3.936;2023-04-06T07:24:38;8.90;99.90
74384;DHT22;62824;52.994;-3.936;2023-04-06T07:27:04;8.90;99.90
74384;DHT22;62824;52.994;-3.936;2023-04-06T07:29:30;8.90;99.90
74384;DHT22;62824;52.994;-3.936;2023-04-06T07:31:56;9.00;99.90
74384;DHT22;62824;52.994;-3.936;2023-04-06T07:34:22;8.90;99.90
74384;DHT22;62824;52.994;-3.936;2023-04-06T07:36:48;9.00;99.90
74384;DHT22;62824;52.994;-3.936;2023-04-06T07:39:14;9.00;99.90
74384;DHT22;62824;52.994;-3.936;2023-04-06T07:41:40;9.00;99.90
74384;DHT22;62824;52.994;-3.936;2023-04-06T07:44:06;9.10;99.90
74384;DHT22;62824;52.994;-3.936;2023-04-06T07:46:32;9.10;99.90
74384;DHT22;62824;52.994;-3.936;2023-04-06T07:49:00;9.10;99.90
74384;DHT22;62824;52.994;-3.936;2023-04-06T07:51:29;9.10;99.90
74384;DHT22;62824;52.994;-3.936;2023-04-06T07:53:55;9.20;99.90
74384;DHT22;62824;52.994;-3.936;2023-04-06T07:56:20;9.10;99.90
74384;DHT22;62824;52.994;-3.936;2023-04-06T07:58:47;9.50;99.90
74384;DHT22;62824;52.994;-3.936;2023-04-06T08:01:13;9.90;99.90
74384;DHT22;62824;52.994;-3.936;2023-04-06T08:03:39;10.40;99.90
74384;DHT22;62824;52.994;-3.936;2023-04-06T08:06:05;11.40;99.90
74384;DHT22;62824;52.994;-3.936;2023-04-06T08:08:31;12.90;99.90
74384;DHT22;62824;52.994;-3.936;2023-04-06T08:10:57;13.70;99.90
74384;DHT22;62824;52.994;-3.936;2023-04-06T08:13:23;14.60;99.90
74384;DHT22;62824;52.994;-3.936;2023-04-06T08:15:49;15.30;87.80
74384;DHT22;62824;52.994;-3.936;2023-04-06T08:18:15;15.80;57.10
74384;DHT22;62824;52.994;-3.936;2023-04-06T08:20:41;15.10;52.40
74384;DHT22;62824;52.994;-3.936;2023-04-06T08:23:07;14.30;50.70
74384;DHT22;62824;52.994;-3.936;2023-04-06T08:25:35;13.50;54.00
74384;DHT22;62824;52.994;-3.936;2023-04-06T08:28:01;12.30;71.00
74384;DHT22;62824;52.994;-3.936;2023-04-06T08:30:28;11.80;82.70
74384;DHT22;62824;52.994;-3.936;2023-04-06T08:32:54;11.20;90.00
74384;DHT22;62824;52.994;-3.936;2023-04-06T08:35:19;10.70;92.10
74384;DHT22;62824;52.994;-3.936;2023-04-06T08:37:45;10.90;99.00
74384;DHT22;62824;52.994;-3.936;2023-04-06T08:40:13;11.00;90.80
74384;DHT22;62824;52.994;-3.936;2023-04-06T08:42:49;11.10;92.90
74384;DHT22;62824;52.994;-3.936;2023-04-06T08:45:16;11.20;93.40
74384;DHT22;62824;52.994;-3.936;2023-04-06T08:51:25;11.50;92.70
74384;DHT22;62824;52.994;-3.936;2023-04-06T08:53:58;11.50;85.80
74384;DHT22;62824;52.994;-3.936;2023-04-06T08:56:25;11.40;85.20
74384;DHT22;62824;52.994;-3.936;2023-04-06T08:58:53;11.30;89.50
74384;DHT22;62824;52.994;-3.936;2023-04-06T09:01:22;11.30;90.10
74384;DHT22;62824;52.994;-3.936;2023-04-06T09:03:49;11.40;91.50
74384;DHT22;62824;52.994;-3.936;2023-04-06T09:06:16;11.60;85.20
74384;DHT22;62824;52.994;-3.936;2023-04-06T09:08:42;11.60;84.70
74384;DHT22;62824;52.994;-3.936;2023-04-06T09:11:09;11.40;81.30
74384;DHT22;62824;52.994;-3.936;2023-04-06T09:13:52;11.20;80.60
74384;DHT22;62824;52.994;-3.936;2023-04-06T09:16:18;11.10;84.00
74384;DHT22;62824;52.994;-3.936;2023-04-06T09:18:47;11.10;82.30
74384;DHT22;62824;52.994;-3.936;2023-04-06T09:21:17;11.20;88.60
74384;DHT22;62824;52.994;-3.936;2023-04-06T09:23:43;11.30;86.20
74384;DHT22;62824;52.994;-3.936;2023-04-06T09:26:16;11.50;88.30
74384;DHT22;62824;52.994;-3.936;2023-04-06T09:28:53;11.70;92.70
74384;DHT22;62824;52.994;-3.936;2023-04-06T09:31:30;11.80;89.90
74384;DHT22;62824;52.994;-3.936;2023-04-06T09:37:37;11.70;86.00
74384;DHT22;62824;52.994;-3.936;2023-04-06T09:40:07;11.60;86.30
74384;DHT22;62824;52.994;-3.936;2023-04-06T09:42:34;11.60;86.80
74384;DHT22;62824;52.994;-3.936;2023-04-06T09:45:01;11.70;84.10
74384;DHT22;62824;52.994;-3.936;2023-04-06T09:47:30;11.60;79.40
74384;DHT22;62824;52.994;-3.936;2023-04-06T09:49:57;11.40;83.40
74384;DHT22;62824;52.994;-3.936;2023-04-06T09:52:27;11.20;87.20
74384;DHT22;62824;52.994;-3.936;2023-04-06T09:55:01;11.10;92.60
74384;DHT22;62824;52.994;-3.936;2023-04-06T10:00:17;11.00;97.00
74384;DHT22;62824;52.994;-3.936;2023-04-06T10:08:12;10.30;99.90
74384;DHT22;62824;52.994;-3.936;2023-04-06T10:10:38;10.30;99.90
74384;DHT22;62824;52.994;-3.936;2023-04-06T10:13:05;10.40;99.90
74384;DHT22;62824;52.994;-3.936;2023-04-06T10:15:31;10.60;99.90
74384;DHT22;62824;52.994;-3.936;2023-04-06T10:17:58;10.80;99.90
74384;DHT22;62824;52.994;-3.936;2023-04-06T10:22:59;11.10;99.90
74384;DHT22;62824;52.994;-3.936;2023-04-06T10:25:29;10.60;99.90
74384;DHT22;62824;52.994;-3.936;2023-04-06T10:28:08;10.60;99.90
74384;DHT22;62824;52.994;-3.936;2023-04-06T10:30:37;10.40;99.90
74384;DHT22;62824;52.994;-3.936;2023-04-06T10:33:17;10.70;99.90
74384;DHT22;62824;52.994;-3.936;2023-04-06T10:35:43;10.80;99.90
74384;DHT22;62824;52.994;-3.936;2023-04-06T10:38:09;11.10;99.90
74384;DHT22;62824;52.994;-3.936;2023-04-06T10:40:38;11.30;96.10
74384;DHT22;62824;52.994;-3.936;2023-04-06T10:43:18;11.10;97.20
74384;DHT22;62824;52.994;-3.936;2023-04-06T10:45:44;10.90;99.20
74384;DHT22;62824;52.994;-3.936;2023-04-06T10:48:18;10.30;99.90
74384;DHT22;62824;52.994;-3.936;2023-04-06T10:50:49;10.10;99.10
74384;DHT22;62824;52.994;-3.936;2023-04-06T10:53:25;9.90;97.50
74384;DHT22;62824;52.994;-3.936;2023-04-06T10:55:52;9.90;99.90
74384;DHT22;62824;52.994;-3.936;2023-04-06T10:58:18;10.30;99.90
74384;DHT22;62824;52.994;-3.936;2023-04-06T11:00:48;11.00;97.60
74384;DHT22;62824;52.994;-3.936;2023-04-06T11:03:14;11.20;96.20
74384;DHT22;62824;52.994;-3.936;2023-04-06T11:05:48;11.00;94.00
74384;DHT22;62824;52.994;-3.936;2023-04-06T11:08:35;11.00;92.20
74384;DHT22;62824;52.994;-3.936;2023-04-06T11:11:14;11.00;95.80
74384;DHT22;62824;52.994;-3.936;2023-04-06T11:13:52;11.00;96.90
74384;DHT22;62824;52.994;-3.936;2023-04-06T11:16:45;11.20;97.70
74384;DHT22;62824;52.994;-3.936;2023-04-06T11:19:11;11.10;95.20
74384;DHT22;62824;52.994;-3.936;2023-04-06T11:21:45;11.00;96.20
74384;DHT22;62824;52.994;-3.936;2023-04-06T11:24:18;11.00;99.30
74384;DHT22;62824;52.994;-3.936;2023-04-06T11:29:12;10.90;98.40
74384;DHT22;62824;52.994;-3.936;2023-04-06T11:34:20;10.60;99.40
74384;DHT22;62824;52.994;-3.936;2023-04-06T11:36:48;10.50;99.90
74384;DHT22;62824;52.994;-3.936;2023-04-06T11:39:19;10.40;99.90
74384;DHT22;62824;52.994;-3.936;2023-04-06T11:41:53;10.10;99.90
74384;DHT22;62824;52.994;-3.936;2023-04-06T11:44:49;10.10;99.90
74384;DHT22;62824;52.994;-3.936;2023-04-06T11:47:15;10.10;99.90
74384;DHT22;62824;52.994;-3.936;2023-04-06T11:49:43;10.20;99.90
74384;DHT22;62824;52.994;-3.936;2023-04-06T11:52:25;10.20;99.90
74384;DHT22;62824;52.994;-3.936;2023-04-06T11:54:53;10.40;99.90
74384;DHT22;62824;52.994;-3.936;2023-04-06T11:57:21;10.10;99.90
74384;DHT22;62824;52.994;-3.936;2023-04-06T11:59:49;10.10;99.90
74384;DHT22;62824;52.994;-3.936;2023-04-06T12:02:15;10.20;99.90
74384;DHT22;62824;52.994;-3.936;2023-04-06T12:04:41;10.10;99.90
74384;DHT22;62824;52.994;-3.936;2023-04-06T12:07:07;10.10;99.90
74384;DHT22;62824;52.994;-3.936;2023-04-06T12:09:33;10.00;99.90
74384;DHT22;62824;52.994;-3.936;2023-04-06T12:12:01;10.10;99.90
74384;DHT22;62824;52.994;-3.936;2023-04-06T12:14:27;10.30;99.90
74384;DHT22;62824;52.994;-3.936;2023-04-06T12:16:53;10.50;99.90
74384;DHT22;62824;52.994;-3.936;2023-04-06T12:19:19;10.40;99.90
74384;DHT22;62824;52.994;-3.936;2023-04-06T12:21:45;10.50;99.90
74384;DHT22;62824;52.994;-3.936;2023-04-06T12:24:11;10.10;99.90
74384;DHT22;62824;52.994;-3.936;2023-04-06T12:26:36;9.70;99.90
74384;DHT22;62824;52.994;-3.936;2023-04-06T12:29:02;9.40;99.90
74384;DHT22;62824;52.994;-3.936;2023-04-06T12:31:34;9.40;99.90
74384;DHT22;62824;52.994;-3.936;2023-04-06T12:34:00;9.50;99.90
74384;DHT22;62824;52.994;-3.936;2023-04-06T12:36:27;9.60;99.90
74384;DHT22;62824;52.994;-3.936;2023-04-06T12:38:53;10.00;99.90
74384;DHT22;62824;52.994;-3.936;2023-04-06T12:41:19;9.80;99.90
74384;DHT22;62824;52.994;-3.936;2023-04-06T12:43:45;10.00;99.90
74384;DHT22;62824;52.994;-3.936;2023-04-06T12:46:11;9.90;99.90
74384;DHT22;62824;52.994;-3.936;2023-04-06T12:48:37;9.70;99.90
74384;DHT22;62824;52.994;-3.936;2023-04-06T12:51:06;9.60;99.90
74384;DHT22;62824;52.994;-3.936;2023-04-06T12:53:33;9.50;99.90
74384;DHT22;62824;52.994;-3.936;2023-04-06T12:56:00;9.70;99.90
74384;DHT22;62824;52.994;-3.936;2023-04-06T12:58:26;9.70;99.90
74384;DHT22;62824;52.994;-3.936;2023-04-06T13:00:53;9.80;99.90
74384;DHT22;62824;52.994;-3.936;2023-04-06T13:03:19;9.90;99.90
74384;DHT22;62824;52.994;-3.936;2023-04-06T13:05:46;9.90;99.90
74384;DHT22;62824;52.994;-3.936;2023-04-06T13:08:13;9.70;99.90
74384;DHT22;62824;52.994;-3.936;2023-04-06T13:10:44;9.60;99.90
74384;DHT22;62824;52.994;-3.936;2023-04-06T13:13:09;9.70;99.90
74384;DHT22;62824;52.994;-3.936;2023-04-06T13:15:36;9.70;99.90
74384;DHT22;62824;52.994;-3.936;2023-04-06T13:18:02;9.80;99.90
74384;DHT22;62824;52.994;-3.936;2023-04-06T13:20:28;9.80;99.90
74384;DHT22;62824;52.994;-3.936;2023-04-06T13:22:54;9.70;99.90
74384;DHT22;62824;52.994;-3.936;2023-04-06T13:25:20;9.90;99.90
74384;DHT22;62824;52.994;-3.936;2023-04-06T13:27:46;9.90;99.90
74384;DHT22;62824;52.994;-3.936;2023-04-06T13:30:14;10.20;99.90
74384;DHT22;62824;52.994;-3.936;2023-04-06T13:32:40;10.20;99.90
74384;DHT22;62824;52.994;-3.936;2023-04-06T13:35:06;10.40;99.90
74384;DHT22;62824;52.994;-3.936;2023-04-06T13:37:33;10.50;99.90
74384;DHT22;62824;52.994;-3.936;2023-04-06T13:40:01;10.50;99.90
74384;DHT22;62824;52.994;-3.936;2023-04-06T13:42:28;10.70;99.90
74384;DHT22;62824;52.994;-3.936;2023-04-06T13:44:54;10.50;99.90
74384;DHT22;62824;52.994;-3.936;2023-04-06T13:47:20;10.50;99.90
74384;DHT22;62824;52.994;-3.936;2023-04-06T13:49:46;10.30;99.90
74384;DHT22;62824;52.994;-3.936;2023-04-06T13:52:12;10.40;99.90
74384;DHT22;62824;52.994;-3.936;2023-04-06T13:54:38;10.50;99.90
74384;DHT22;62824;52.994;-3.936;2023-04-06T13:57:04;10.40;99.90
74384;DHT22;62824;52.994;-3.936;2023-04-06T13:59:36;10.40;99.90
74384;DHT22;62824;52.994;-3.936;2023-04-06T14:02:02;10.50;99.90
74384;DHT22;62824;52.994;-3.936;2023-04-06T14:04:28;10.70;99.90
74384;DHT22;62824;52.994;-3.936;2023-04-06T14:06:55;11.00;99.90
74384;DHT22;62824;52.994;-3.936;2023-04-06T14:09:21;10.80;97.40
74384;DHT22;62824;52.994;-3.936;2023-04-06T14:11:46;10.80;96.40
74384;DHT22;62824;52.994;-3.936;2023-04-06T14:14:12;10.60;99.00
74384;DHT22;62824;52.994;-3.936;2023-04-06T14:16:38;10.50;97.50
74384;DHT22;62824;52.994;-3.936;2023-04-06T14:19:04;10.80;94.00
74384;DHT22;62824;52.994;-3.936;2023-04-06T14:21:29;11.00;91.80
74384;DHT22;62824;52.994;-3.936;2023-04-06T14:23:56;11.30;95.90
74384;DHT22;62824;52.994;-3.936;2023-04-06T14:26:23;11.00;98.30
74384;DHT22;62824;52.994;-3.936;2023-04-06T14:28:49;11.60;98.80
74384;DHT22;62824;52.994;-3.936;2023-04-06T14:31:15;12.30;95.00
74384;DHT22;62824;52.994;-3.936;2023-04-06T14:33:42;12.80;87.40
74384;DHT22;62824;52.994;-3.936;2023-04-06T14:36:09;13.00;69.20
74384;DHT22;62824;52.994;-3.936;2023-04-06T14:38:35;12.90;67.80
74384;DHT22;62824;52.994;-3.936;2023-04-06T14:41:01;12.60;66.20
74384;DHT22;62824;52.994;-3.936;2023-04-06T14:43:27;13.20;68.80
74384;DHT22;62824;52.994;-3.936;2023-04-06T14:45:53;13.70;62.20
74384;DHT22;62824;52.994;-3.936;2023-04-06T14:48:18;14.00;52.20
74384;DHT22;62824;52.994;-3.936;2023-04-06T14:50:54;14.50;45.70
74384;DHT22;62824;52.994;-3.936;2023-04-06T14:53:45;15.20;46.50
74384;DHT22;62824;52.994;-3.936;2023-04-06T14:56:11;14.90;38.60
74384;DHT22;62824;52.994;-3.936;2023-04-06T14:58:40;14.40;44.30
74384;DHT22;62824;52.994;-3.936;2023-04-06T15:01:05;14.10;39.10
74384;DHT22;62824;52.994;-3.936;2023-04-06T15:03:31;14.40;43.60
74384;DHT22;62824;52.994;-3.936;2023-04-06T15:05:57;14.00;46.30
74384;DHT22;62824;52.994;-3.936;2023-04-06T15:08:24;13.60;43.30
74384;DHT22;62824;52.994;-3.936;2023-04-06T15:10:50;13.40;47.70
74384;DHT22;62824;52.994;-3.936;2023-04-06T15:13:17;13.20;47.10
74384;DHT22;62824;52.994;-3.936;2023-04-06T15:15:43;13.20;54.10
74384;DHT22;62824;52.994;-3.936;2023-04-06T15:18:10;13.00;51.40
74384;DHT22;62824;52.994;-3.936;2023-04-06T15:20:36;13.10;48.60
74384;DHT22;62824;52.994;-3.936;2023-04-06T15:23:02;13.20;45.00
74384;DHT22;62824;52.994;-3.936;2023-04-06T15:25:29;13.10;48.40
74384;DHT22;62824;52.994;-3.936;2023-04-06T15:27:55;13.10;48.10
74384;DHT22;62824;52.994;-3.936;2023-04-06T15:30:21;13.00;39.50
74384;DHT22;62824;52.994;-3.936;2023-04-06T15:32:56;13.10;45.80
74384;DHT22;62824;52.994;-3.936;2023-04-06T15:35:24;13.10;48.40
74384;DHT22;62824;52.994;-3.936;2023-04-06T15:37:51;13.20;46.80
74384;DHT22;62824;52.994;-3.936;2023-04-06T15:40:17;13.40;42.20
74384;DHT22;62824;52.994;-3.936;2023-04-06T15:42:43;13.40;39.90
74384;DHT22;62824;52.994;-3.936;2023-04-06T15:45:10;13.50;41.20
74384;DHT22;62824;52.994;-3.936;2023-04-06T15:47:40;13.60;40.50
74384;DHT22;62824;52.994;-3.936;2023-04-06T15:50:06;13.60;38.70
74384;DHT22;62824;52.994;-3.936;2023-04-06T15:52:33;13.40;40.30
74384;DHT22;62824;52.994;-3.936;2023-04-06T15:55:00;13.10;42.80
74384;DHT22;62824;52.994;-3.936;2023-04-06T15:57:26;13.10;38.90
74384;DHT22;62824;52.994;-3.936;2023-04-06T15:59:51;12.90;41.70
74384;DHT22;62824;52.994;-3.936;2023-04-06T16:02:20;13.10;43.30
74384;DHT22;62824;52.994;-3.936;2023-04-06T16:04:48;13.30;41.20
74384;DHT22;62824;52.994;-3.936;2023-04-06T16:07:14;13.40;42.50
74384;DHT22;62824;52.994;-3.936;2023-04-06T16:09:40;13.40;41.80